createdAt,value
2018-09-22T00:00:59.875Z,76.20
2018-09-22T00:03:29.574Z,76.70
2018-09-22T00:05:59.250Z,77.30
2018-09-22T00:08:28.950Z,76.60
2018-09-22T00:10:58.646Z,77.00
2018-09-22T00:13:28.345Z,77.70
2018-09-22T00:15:58.011Z,77.40
2018-09-22T00:18:27.697Z,77.20
2018-09-22T00:20:57.427Z,77.90
2018-09-22T00:23:27.128Z,78.20
2018-09-22T00:25:56.794Z,78.10
2018-09-22T00:28:26.526Z,78.30
2018-09-22T00:30:56.191Z,78.40
2018-09-22T00:33:25.895Z,78.60
2018-09-22T00:35:55.619Z,79.00
2018-09-22T00:38:25.306Z,79.30
2018-09-22T00:40:55.014Z,79.40
2018-09-22T00:43:24.704Z,79.30
2018-09-22T00:45:54.390Z,80.20
2018-09-22T00:48:24.107Z,80.20
2018-09-22T00:50:53.783Z,80.00
2018-09-22T00:53:23.504Z,80.20
2018-09-22T00:55:53.235Z,81.10
2018-09-22T00:58:22.989Z,80.80
2018-09-22T01:00:52.690Z,80.70
2018-09-22T01:03:22.384Z,81.10
2018-09-22T01:05:52.088Z,81.00
2018-09-22T01:08:21.755Z,80.90
2018-09-22T01:10:51.478Z,80.90
2018-09-22T01:13:21.146Z,80.90
2018-09-22T01:15:50.905Z,81.10
2018-09-22T01:18:20.743Z,81.70
2018-09-22T01:20:50.502Z,81.10
2018-09-22T01:23:20.180Z,81.50
2018-09-22T01:25:49.867Z,82.00
2018-09-22T01:28:19.551Z,82.20
2018-09-22T01:30:49.250Z,82.10
2018-09-22T01:33:18.926Z,82.20
2018-09-22T01:35:48.610Z,82.10
2018-09-22T01:38:18.291Z,82.20
2018-09-22T01:40:47.981Z,82.60
2018-09-22T01:43:17.779Z,82.20
2018-09-22T01:45:47.499Z,82.10
2018-09-22T01:48:17.247Z,82.10
2018-09-22T01:50:46.964Z,82.30
2018-09-22T01:53:16.986Z,82.50
2018-09-22T01:55:46.700Z,82.10
2018-09-22T01:58:16.370Z,82.20
2018-09-22T02:00:46.054Z,82.40
2018-09-22T02:03:15.724Z,82.30
2018-09-22T02:05:45.720Z,82.00
2018-09-22T02:08:16.076Z,82.20
2018-09-22T02:10:46.162Z,82.60
2018-09-22T02:13:16.239Z,82.30
2018-09-22T02:15:46.161Z,82.20
2018-09-22T02:18:15.855Z,82.50
2018-09-22T02:20:45.886Z,81.90
2018-09-22T02:23:15.666Z,81.80
2018-09-22T02:25:45.355Z,82.00
2018-09-22T02:28:15.102Z,82.00
2018-09-22T02:30:44.796Z,82.20
2018-09-22T02:33:14.463Z,82.50
2018-09-22T02:35:44.172Z,82.60
2018-09-22T02:38:13.839Z,82.20
2018-09-22T02:40:43.567Z,82.20
2018-09-22T02:43:13.286Z,81.90
2018-09-22T02:45:42.983Z,81.70
2018-09-22T02:48:12.648Z,82.00
2018-09-22T02:50:42.350Z,81.70
2018-09-22T02:53:12.006Z,81.20
2018-09-22T02:55:41.731Z,80.90
2018-09-22T02:58:11.393Z,80.80
2018-09-22T03:00:41.100Z,80.60
2018-09-22T03:03:10.817Z,80.70
2018-09-22T03:05:40.548Z,81.20
2018-09-22T03:08:10.569Z,80.60
2018-09-22T03:10:40.324Z,80.70
2018-09-22T03:13:10.020Z,80.50
2018-09-22T03:15:39.724Z,80.50
2018-09-22T03:18:09.406Z,80.10
2018-09-22T03:20:39.109Z,80.00
2018-09-22T03:23:08.811Z,80.20
2018-09-22T03:25:38.491Z,80.20
2018-09-22T03:28:08.203Z,79.90
2018-09-22T03:30:37.935Z,80.00
2018-09-22T03:33:07.626Z,80.00
2018-09-22T03:35:37.312Z,79.80
2018-09-22T03:38:06.996Z,79.80
2018-09-22T03:40:36.706Z,79.60
2018-09-22T03:43:06.445Z,80.10
2018-09-22T03:45:36.123Z,81.10
2018-09-22T03:48:06.094Z,80.90
2018-09-22T03:50:35.776Z,80.60
2018-09-22T03:53:05.767Z,80.80
2018-09-22T03:55:35.422Z,80.00
2018-09-22T03:58:05.503Z,80.50
2018-09-22T04:00:35.182Z,80.40
2018-09-22T04:03:05.289Z,80.20
2018-09-22T04:05:34.958Z,80.30
2018-09-22T04:08:05.050Z,81.50
2018-09-22T04:10:34.767Z,81.30
2018-09-22T04:13:04.563Z,81.10
2018-09-22T04:15:34.275Z,81.10
2018-09-22T04:18:03.967Z,80.10
2018-09-22T04:20:33.647Z,81.00
2018-09-22T04:23:03.634Z,80.60
2018-09-22T04:25:34.328Z,80.00
2018-09-22T04:28:04.475Z,80.60
2018-09-22T04:30:34.751Z,80.40
2018-09-22T04:33:04.557Z,80.50
2018-09-22T04:35:34.429Z,80.90
2018-09-22T04:38:04.178Z,80.90
2018-09-22T04:40:33.903Z,79.60
2018-09-22T04:43:03.643Z,79.50
2018-09-22T04:45:33.471Z,80.20
2018-09-22T04:48:03.178Z,80.00
2018-09-22T04:50:33.130Z,80.80
2018-09-22T04:53:03.171Z,80.20
2018-09-22T04:55:33.259Z,80.30
2018-09-22T04:58:02.967Z,79.50
2018-09-22T05:00:32.998Z,78.90
2018-09-22T05:03:03.922Z,79.10
2018-09-22T05:05:33.664Z,79.60
2018-09-22T05:08:03.405Z,80.40
2018-09-22T05:10:33.104Z,79.60
2018-09-22T05:13:02.834Z,79.80
2018-09-22T05:15:32.502Z,79.50
2018-09-22T05:18:02.275Z,78.80
2018-09-22T05:20:31.975Z,79.80
2018-09-22T05:23:01.699Z,79.50
2018-09-22T05:25:31.404Z,78.80
2018-09-22T05:28:01.127Z,79.60
2018-09-22T05:30:30.807Z,80.20
2018-09-22T05:33:00.531Z,80.10
2018-09-22T05:35:30.240Z,79.90
2018-09-22T05:38:06.004Z,79.60
2018-09-22T05:40:35.731Z,80.00
2018-09-22T05:43:05.611Z,79.70
2018-09-22T05:45:35.295Z,80.00
2018-09-22T05:48:05.107Z,80.30
2018-09-22T05:50:34.758Z,78.80
2018-09-22T05:53:04.491Z,79.50
2018-09-22T05:55:34.186Z,79.40
2018-09-22T05:58:04.111Z,79.80
2018-09-22T06:00:39.690Z,80.20
2018-09-22T06:03:10.582Z,80.40
2018-09-22T06:05:40.291Z,81.40
2018-09-22T06:08:10.359Z,80.30
2018-09-22T06:10:40.050Z,80.40
2018-09-22T06:13:09.735Z,80.20
2018-09-22T06:15:39.415Z,80.60
2018-09-22T06:18:09.147Z,80.60
2018-09-22T06:20:38.843Z,80.80
2018-09-22T06:23:08.988Z,81.20
2018-09-22T06:25:38.895Z,80.70
2018-09-22T06:28:08.587Z,80.70
2018-09-22T06:30:38.275Z,80.50
2018-09-22T06:33:08.063Z,80.10
2018-09-22T06:35:39.061Z,79.80
2018-09-22T06:38:09.162Z,80.10
2018-09-22T06:40:38.855Z,80.30
2018-09-22T06:43:08.658Z,79.90
2018-09-22T06:45:38.356Z,79.20
2018-09-22T06:48:08.206Z,79.20
2018-09-22T06:50:37.891Z,79.00
2018-09-22T06:53:07.895Z,79.20
2018-09-22T06:55:38.118Z,78.80
2018-09-22T06:58:08.187Z,79.80
2018-09-22T07:00:37.875Z,79.00
2018-09-22T07:03:07.595Z,78.70
2018-09-22T07:05:37.280Z,79.30
2018-09-22T07:08:07.045Z,78.80
2018-09-22T07:10:36.791Z,79.20
2018-09-22T07:13:06.665Z,79.00
2018-09-22T07:15:36.467Z,78.30
2018-09-22T07:18:06.459Z,78.30
2018-09-22T07:20:36.239Z,78.50
2018-09-22T07:23:11.367Z,78.30
2018-09-22T07:25:41.751Z,78.50
2018-09-22T07:28:13.062Z,77.00
2018-09-22T07:30:42.997Z,76.40
2018-09-22T07:33:12.859Z,77.40
2018-09-22T07:35:45.248Z,77.90
2018-09-22T07:38:15.400Z,77.60
2018-09-22T07:40:45.224Z,77.30
2018-09-22T07:43:14.911Z,77.20
2018-09-22T07:45:44.685Z,75.30
2018-09-22T07:48:14.548Z,75.80
2018-09-22T07:50:44.263Z,76.20
2018-09-22T07:53:13.921Z,76.00
2018-09-22T07:55:43.916Z,75.80
2018-09-22T07:58:13.618Z,74.60
2018-09-22T08:00:43.537Z,75.70
2018-09-22T08:03:13.230Z,74.80
2018-09-22T08:05:42.904Z,74.20
2018-09-22T08:08:12.607Z,74.40
2018-09-22T08:10:42.323Z,74.10
2018-09-22T08:13:11.991Z,73.50
2018-09-22T08:15:41.683Z,73.70
2018-09-22T08:18:11.419Z,73.50
2018-09-22T08:20:41.123Z,71.50
2018-09-22T08:23:10.843Z,72.20
2018-09-22T08:25:40.542Z,72.40
2018-09-22T08:28:10.267Z,71.60
2018-09-22T08:30:40.038Z,71.60
2018-09-22T08:33:09.782Z,69.70
2018-09-22T08:35:39.539Z,70.30
2018-09-22T08:38:09.206Z,67.80
2018-09-22T08:40:38.929Z,69.80
2018-09-22T08:43:08.629Z,70.60
2018-09-22T08:45:40.266Z,69.90
2018-09-22T08:48:09.979Z,68.80
2018-09-22T08:50:39.999Z,68.90
2018-09-22T08:53:09.693Z,69.10
2018-09-22T08:55:39.404Z,68.90
2018-09-22T08:58:09.142Z,68.50
2018-09-22T09:00:38.856Z,68.30
2018-09-22T09:03:08.607Z,67.80
2018-09-22T09:05:38.361Z,66.90
2018-09-22T09:08:08.343Z,66.60
2018-09-22T09:10:38.070Z,66.70
2018-09-22T09:13:08.130Z,66.70
2018-09-22T09:15:37.911Z,65.30
2018-09-22T09:18:07.948Z,62.30
2018-09-22T09:20:37.662Z,61.50
2018-09-22T09:23:07.714Z,61.20
2018-09-22T09:25:37.395Z,63.20
2018-09-22T09:28:07.083Z,60.50
2018-09-22T09:30:36.798Z,61.60
2018-09-22T09:33:06.502Z,64.10
2018-09-22T09:35:36.292Z,61.60
2018-09-22T09:38:05.990Z,61.20
2018-09-22T09:40:35.703Z,61.20
2018-09-22T09:43:05.402Z,62.40
2018-09-22T09:45:35.153Z,62.00
2018-09-22T09:48:04.900Z,60.70
2018-09-22T09:50:34.637Z,62.00
2018-09-22T09:53:04.381Z,61.40
2018-09-22T09:55:34.060Z,60.70
2018-09-22T09:58:03.782Z,62.70
2018-09-22T10:00:38.937Z,62.00
2018-09-22T10:03:09.387Z,62.50
2018-09-22T10:05:39.141Z,62.10
2018-09-22T10:08:08.899Z,60.50
2018-09-22T10:10:39.671Z,61.10
2018-09-22T10:13:11.469Z,61.80
2018-09-22T10:15:43.350Z,61.40
2018-09-22T10:18:15.474Z,62.00
2018-09-22T10:20:45.748Z,61.30
2018-09-22T10:23:15.462Z,60.20
2018-09-22T10:25:45.294Z,59.60
2018-09-22T10:28:15.028Z,61.60
2018-09-22T10:30:45.235Z,60.40
2018-09-22T10:33:14.990Z,60.00
2018-09-22T10:35:44.680Z,59.80
2018-09-22T10:38:14.406Z,60.00
2018-09-22T10:40:44.112Z,59.70
2018-09-22T10:43:13.824Z,60.80
2018-09-22T10:45:43.603Z,59.60
2018-09-22T10:48:13.314Z,58.50
2018-09-22T10:50:43.010Z,59.00
2018-09-22T10:53:12.703Z,59.40
2018-09-22T10:55:42.409Z,57.60
2018-09-22T10:58:12.237Z,58.80
2018-09-22T11:00:41.973Z,57.50
2018-09-22T11:03:11.688Z,57.70
2018-09-22T11:05:41.566Z,57.20
2018-09-22T11:08:11.250Z,58.40
2018-09-22T11:10:40.955Z,56.90
2018-09-22T11:13:10.667Z,56.80
2018-09-22T11:15:40.361Z,57.60
2018-09-22T11:18:10.086Z,58.20
2018-09-22T11:20:39.817Z,56.60
2018-09-22T11:23:09.516Z,57.30
2018-09-22T11:25:39.225Z,56.20
2018-09-22T11:28:08.963Z,57.10
2018-09-22T11:30:38.708Z,56.20
2018-09-22T11:33:08.781Z,56.40
2018-09-22T11:35:38.446Z,55.90
2018-09-22T11:38:08.119Z,55.60
2018-09-22T11:40:37.782Z,55.40
2018-09-22T11:43:07.655Z,55.40
2018-09-22T11:45:37.338Z,55.70
2018-09-22T11:48:07.021Z,55.80
2018-09-22T11:50:36.688Z,55.80
2018-09-22T11:53:06.779Z,53.80
2018-09-22T11:55:36.435Z,53.20
2018-09-22T11:58:06.169Z,53.50
2018-09-22T12:00:35.834Z,53.80
2018-09-22T12:03:05.606Z,55.20
2018-09-22T12:05:35.266Z,53.00
2018-09-22T12:08:04.971Z,53.00
2018-09-22T12:10:34.712Z,53.20
2018-09-22T12:13:04.405Z,53.60
2018-09-22T12:15:34.055Z,53.90
2018-09-22T12:18:03.746Z,53.70
2018-09-22T12:20:33.419Z,53.10
2018-09-22T12:23:03.124Z,51.40
2018-09-22T12:25:32.786Z,53.50
2018-09-22T12:28:02.496Z,52.60
2018-09-22T12:30:32.206Z,51.00
2018-09-22T12:33:02.075Z,51.80
2018-09-22T12:35:31.761Z,50.50
2018-09-22T12:38:01.437Z,51.10
2018-09-22T12:40:31.106Z,50.90
2018-09-22T12:43:00.769Z,51.70
2018-09-22T12:45:30.470Z,51.40
2018-09-22T12:48:00.137Z,50.70
2018-09-22T12:50:29.830Z,50.90
2018-09-22T12:52:59.511Z,49.50
2018-09-22T12:55:29.223Z,51.10
2018-09-22T12:57:59.091Z,50.60
2018-09-22T13:00:28.793Z,52.10
2018-09-22T13:02:58.786Z,51.70
2018-09-22T13:05:28.666Z,52.10
2018-09-22T13:07:58.380Z,49.40
2018-09-22T13:10:28.503Z,50.90
2018-09-22T13:12:58.164Z,50.60
2018-09-22T13:15:27.854Z,50.10
2018-09-22T13:17:57.551Z,50.30
2018-09-22T13:20:27.267Z,49.10
2018-09-22T13:22:56.906Z,49.50
2018-09-22T13:25:26.623Z,48.90
2018-09-22T13:27:56.268Z,49.10
2018-09-22T13:30:25.947Z,50.40
2018-09-22T13:32:55.614Z,50.30
2018-09-22T13:35:25.302Z,52.10
2018-09-22T13:37:55.003Z,51.00
2018-09-22T13:40:24.693Z,49.10
2018-09-22T13:42:54.358Z,50.40
2018-09-22T13:45:24.047Z,50.60
2018-09-22T13:47:53.741Z,49.80
2018-09-22T13:50:23.438Z,51.20
2018-09-22T13:52:53.099Z,49.30
2018-09-22T13:55:22.842Z,49.80
2018-09-22T13:57:52.506Z,50.90
2018-09-22T14:00:22.210Z,50.70
2018-09-22T14:02:52.268Z,48.30
2018-09-22T14:05:21.951Z,47.70
2018-09-22T14:07:51.627Z,49.30
2018-09-22T14:10:21.381Z,47.80
2018-09-22T14:12:51.226Z,48.80
2018-09-22T14:15:20.923Z,47.70
2018-09-22T14:17:50.623Z,48.10
2018-09-22T14:20:20.326Z,49.20
2018-09-22T14:22:49.978Z,47.40
2018-09-22T14:25:19.683Z,46.90
2018-09-22T14:27:49.359Z,48.60
2018-09-22T14:30:19.079Z,48.40
2018-09-22T14:32:48.759Z,48.10
2018-09-22T14:35:18.499Z,48.20
2018-09-22T14:37:48.259Z,48.50
2018-09-22T14:40:17.990Z,47.50
2018-09-22T14:42:47.646Z,49.40
2018-09-22T14:45:21.078Z,49.10
2018-09-22T14:47:50.787Z,48.20
2018-09-22T14:50:20.475Z,47.60
2018-09-22T14:52:50.164Z,47.90
2018-09-22T14:55:19.830Z,48.40
2018-09-22T14:57:49.500Z,47.30
2018-09-22T15:00:19.222Z,45.20
2018-09-22T15:02:48.911Z,46.90
2018-09-22T15:05:18.600Z,47.00
2018-09-22T15:07:48.275Z,45.80
2018-09-22T15:10:18.055Z,47.90
2018-09-22T15:12:47.718Z,48.20
2018-09-22T15:15:17.458Z,48.40
2018-09-22T15:17:47.148Z,48.60
2018-09-22T15:20:16.875Z,47.40
2018-09-22T15:22:46.608Z,47.60
2018-09-22T15:25:16.278Z,45.60
2018-09-22T15:27:45.959Z,46.40
2018-09-22T15:30:15.616Z,46.50
2018-09-22T15:32:45.359Z,47.30
2018-09-22T15:35:15.046Z,47.50
2018-09-22T15:37:44.740Z,46.50
2018-09-22T15:40:14.482Z,46.20
2018-09-22T15:42:44.159Z,47.00
2018-09-22T15:45:19.451Z,46.60
2018-09-22T15:47:49.144Z,46.60
2018-09-22T15:50:18.838Z,46.20
2018-09-22T15:52:48.562Z,47.60
2018-09-22T15:55:18.226Z,47.60
2018-09-22T15:57:47.906Z,46.30
2018-09-22T16:00:17.944Z,45.50
2018-09-22T16:02:47.646Z,45.50
2018-09-22T16:05:17.363Z,46.60
2018-09-22T16:07:47.043Z,45.90
2018-09-22T16:10:16.726Z,45.70
2018-09-22T16:12:46.446Z,45.50
2018-09-22T16:15:16.143Z,44.80
2018-09-22T16:17:45.834Z,45.80
2018-09-22T16:20:15.548Z,45.80
2018-09-22T16:22:45.327Z,46.20
2018-09-22T16:25:14.986Z,46.40
2018-09-22T16:27:44.690Z,47.90
2018-09-22T16:30:14.386Z,47.20
2018-09-22T16:32:44.104Z,47.80
2018-09-22T16:35:13.855Z,48.10
2018-09-22T16:37:43.691Z,47.30
2018-09-22T16:40:13.346Z,47.30
2018-09-22T16:42:43.032Z,47.70
2018-09-22T16:45:18.443Z,47.70
2018-09-22T16:47:48.122Z,48.40
2018-09-22T16:50:17.862Z,47.80
2018-09-22T16:52:47.560Z,48.00
2018-09-22T16:55:17.683Z,47.00
2018-09-22T16:57:47.505Z,47.40
2018-09-22T17:00:17.218Z,48.20
2018-09-22T17:02:47.120Z,49.30
2018-09-22T17:05:16.851Z,48.90
2018-09-22T17:07:46.538Z,49.10
2018-09-22T17:10:16.252Z,47.90
2018-09-22T17:12:46.250Z,48.80
2018-09-22T17:15:15.990Z,49.30
2018-09-22T17:17:45.768Z,49.00
2018-09-22T17:20:15.490Z,48.60
2018-09-22T17:22:45.191Z,49.40
2018-09-22T17:25:15.163Z,48.50
2018-09-22T17:27:44.844Z,49.80
2018-09-22T17:30:14.578Z,50.30
2018-09-22T17:32:44.434Z,50.30
2018-09-22T17:35:14.139Z,51.10
2018-09-22T17:37:43.852Z,51.20
2018-09-22T17:40:13.789Z,51.90
2018-09-22T17:42:43.483Z,52.30
2018-09-22T17:45:13.841Z,53.30
2018-09-22T17:47:43.967Z,54.20
2018-09-22T17:50:13.707Z,53.50
2018-09-22T17:52:43.386Z,53.40
2018-09-22T17:55:13.039Z,54.40
2018-09-22T17:57:42.816Z,53.40
2018-09-22T18:00:12.535Z,53.40
2018-09-22T18:02:42.516Z,54.70
2018-09-22T18:05:12.290Z,54.40
2018-09-22T18:07:42.035Z,54.70
2018-09-22T18:10:12.160Z,54.80
2018-09-22T18:12:42.234Z,54.80
2018-09-22T18:15:11.918Z,56.40
2018-09-22T18:17:41.991Z,55.20
2018-09-22T18:20:11.788Z,54.70
2018-09-22T18:22:41.779Z,55.90
2018-09-22T18:25:11.578Z,56.30
2018-09-22T18:27:41.448Z,57.10
2018-09-22T18:30:11.235Z,55.10
2018-09-22T18:32:40.956Z,56.10
2018-09-22T18:35:10.770Z,56.20
2018-09-22T18:37:40.521Z,55.90
2018-09-22T18:40:10.276Z,55.50
2018-09-22T18:42:40.319Z,54.90
2018-09-22T18:45:15.847Z,56.40
2018-09-22T18:47:45.743Z,59.30
2018-09-22T18:50:15.988Z,60.50
2018-09-22T18:52:45.642Z,59.90
2018-09-22T18:55:15.320Z,62.20
2018-09-22T18:57:44.982Z,62.60
2018-09-22T19:00:14.671Z,62.60
2018-09-22T19:02:45.159Z,64.30
2018-09-22T19:05:15.651Z,64.20
2018-09-22T19:07:45.415Z,64.50
2018-09-22T19:10:15.162Z,64.20
2018-09-22T19:12:44.914Z,64.00
2018-09-22T19:15:18.391Z,65.30
2018-09-22T19:17:55.467Z,65.20
2018-09-22T19:21:02.422Z,64.20
2018-09-22T19:23:36.943Z,65.50
2018-09-22T19:26:10.427Z,64.50
2018-09-22T19:28:45.576Z,64.50
2018-09-22T19:31:18.960Z,64.30
2018-09-22T19:33:52.887Z,64.90
2018-09-22T19:36:29.822Z,65.30
2018-09-22T19:40:03.494Z,64.40
2018-09-22T19:43:36.759Z,64.90
2018-09-22T19:46:10.060Z,64.80
2018-09-22T19:48:46.846Z,65.60
2018-09-22T19:51:18.742Z,66.20
2018-09-22T19:53:50.846Z,64.60
2018-09-22T19:56:20.779Z,64.70
2018-09-22T19:58:50.477Z,65.10
2018-09-22T20:01:20.195Z,65.50
2018-09-22T20:03:49.883Z,65.50
2018-09-22T20:06:20.034Z,65.80
2018-09-22T20:08:49.745Z,65.10
2018-09-22T20:11:19.506Z,66.40
2018-09-22T20:13:49.178Z,66.10
2018-09-22T20:16:18.897Z,66.80
2018-09-22T20:18:49.323Z,66.60
2018-09-22T20:21:19.394Z,67.30
2018-09-22T20:23:49.134Z,67.00
2018-09-22T20:26:19.043Z,66.70
2018-09-22T20:28:48.749Z,66.10
2018-09-22T20:31:18.507Z,66.40
2018-09-22T20:33:48.196Z,67.30
2018-09-22T20:36:19.201Z,69.00
2018-09-22T20:38:50.407Z,69.20
2018-09-22T20:41:21.014Z,70.40
2018-09-22T20:43:51.027Z,70.20
2018-09-22T20:46:22.142Z,70.10
2018-09-22T20:48:51.866Z,70.30
2018-09-22T20:51:21.565Z,70.20
2018-09-22T20:53:51.352Z,69.90
2018-09-22T20:56:21.466Z,70.00
2018-09-22T20:58:51.284Z,70.40
2018-09-22T21:01:20.987Z,70.40
2018-09-22T21:03:50.703Z,68.50
2018-09-22T21:06:20.482Z,68.30
2018-09-22T21:08:50.663Z,68.00
2018-09-22T21:11:20.839Z,68.90
2018-09-22T21:13:50.559Z,68.40
2018-09-22T21:16:20.246Z,69.00
2018-09-22T21:18:49.983Z,69.60
2018-09-22T21:21:19.871Z,68.60
2018-09-22T21:23:49.555Z,69.10
2018-09-22T21:26:20.115Z,68.90
2018-09-22T21:28:49.819Z,68.70
2018-09-22T21:31:19.531Z,69.50
2018-09-22T21:33:49.660Z,70.00
2018-09-22T21:36:19.399Z,71.10
2018-09-22T21:38:49.322Z,71.90
2018-09-22T21:41:19.673Z,72.30
2018-09-22T21:43:51.114Z,71.60
2018-09-22T21:46:21.230Z,71.40
2018-09-22T21:48:51.327Z,72.20
2018-09-22T21:51:21.439Z,72.30
2018-09-22T21:53:51.599Z,71.90
2018-09-22T21:56:21.994Z,71.80
2018-09-22T21:58:51.940Z,72.00
2018-09-22T22:01:27.228Z,73.00
2018-09-22T22:03:56.950Z,72.50
2018-09-22T22:06:26.654Z,74.00
2018-09-22T22:08:57.418Z,75.60
2018-09-22T22:11:27.826Z,76.20
2018-09-22T22:13:59.331Z,76.30
2018-09-22T22:16:29.930Z,75.80
2018-09-22T22:19:00.061Z,77.00
2018-09-22T22:21:30.386Z,77.60
2018-09-22T22:24:00.382Z,77.60
2018-09-22T22:26:30.663Z,77.00
2018-09-22T22:29:00.809Z,77.20
2018-09-22T22:31:30.834Z,77.70
2018-09-22T22:34:01.131Z,78.20
2018-09-22T22:36:30.877Z,78.60
2018-09-22T22:39:01.466Z,79.20
2018-09-22T22:41:32.168Z,80.30
2018-09-22T22:44:02.324Z,81.30
2018-09-22T22:46:32.411Z,80.30
2018-09-22T22:49:02.423Z,80.30
2018-09-22T22:51:33.198Z,80.00
2018-09-22T22:54:03.151Z,80.30
2018-09-22T22:56:32.848Z,79.80
2018-09-22T22:59:04.542Z,81.10
2018-09-22T23:01:34.842Z,80.00
2018-09-22T23:04:04.922Z,80.30
2018-09-22T23:06:34.656Z,80.40
2018-09-22T23:09:05.070Z,80.10
2018-09-22T23:11:34.799Z,79.90
2018-09-22T23:14:04.630Z,79.60
2018-09-22T23:16:34.874Z,80.10
2018-09-22T23:19:05.008Z,80.90
2018-09-22T23:21:34.659Z,81.50
2018-09-22T23:24:04.367Z,82.30
2018-09-22T23:26:34.098Z,83.80
2018-09-22T23:29:04.122Z,85.00
2018-09-22T23:31:34.179Z,84.70
2018-09-22T23:34:04.253Z,85.00
2018-09-22T23:36:34.011Z,85.90
2018-09-22T23:39:03.991Z,86.30
2018-09-22T23:41:34.170Z,86.10
2018-09-22T23:44:03.971Z,86.60
2018-09-22T23:46:33.674Z,86.60
2018-09-22T23:49:03.772Z,86.20
2018-09-22T23:51:33.791Z,86.30
2018-09-22T23:54:03.573Z,87.00
2018-09-22T23:56:33.266Z,86.70
2018-09-22T23:59:03.322Z,87.20
